Main page
METAR-TAF:

METAR-TAF

Airports :

Auckland Airport

Auckland, New Zealand

latitude: 37-01S, longitude: 174-48E, elevation: 7 m

Current weather observation

The report was made 25 minutes ago, at 06:00 UTC
Wind 10 kt from the Southwest
Temperature 17°C
Humidity 72%
Pressure 1023 hPa
Visibility 10 km or more

METAR: NZAA 230600Z AUTO 23010KT 9999 NCD 17/12 Q1023 NOSIG

Time: 19:25 (06:25 UTC)

Forecast

The report was made 1 hour and 22 minutes ago, at 05:03 UTC
Forecast valid from 23 at 06 UTC to 24 at 06 UTC
Wind 10 kt from the West/Southwest
Visibility 10 km or more
Scattered clouds at a height of 2000 ft
From 23 at 0800 UTC
Wind 5 kt from the South
Visibility 10 km or more
Broken clouds at a height of 2000 ft
Probability 30%
from 23 at 12 UTC to 23 at 21 UTC
Broken clouds at a height of 1000 ft
Becoming
from 24 at 00 UTC to 24 at 02 UTC
Wind 10 kt from the West/Southwest

TAF: NZAA 230503Z 2306/2406 24010KT 9999 SCT020 FM230800 18005KT 9999 BKN020 PROB30 2312/2321 BKN010 BECMG 2400/2402 25010KT

Weather observations and forecasts of more than 4000 airports (METAR and TAF reports).

The available stations are represented by yellow and red dots on the map.

Hover mouse over dot to see the name of the station.

Then click to see weather observations and forecasts.

To change the map : click on the green buttons with a black cross to zoom in, on the green button with a dash to zoom out, or on the green arrows for adjacent maps.


METAR-TAF: